sensor_id;sensor_type;location;lat;lon;timestamp;temperature;humidity
3542;DHT22;1785;47.388;8.538;2023-07-09T00:01:40;27.30;99.90
3542;DHT22;1785;47.388;8.538;2023-07-09T00:04:08;27.20;99.90
3542;DHT22;1785;47.388;8.538;2023-07-09T00:06:34;27.20;99.90
3542;DHT22;1785;47.388;8.538;2023-07-09T00:09:01;27.20;99.90
3542;DHT22;1785;47.388;8.538;2023-07-09T00:11:28;27.20;99.90
3542;DHT22;1785;47.388;8.538;2023-07-09T00:13:54;27.20;99.90
3542;DHT22;1785;47.388;8.538;2023-07-09T00:16:24;27.10;99.90
3542;DHT22;1785;47.388;8.538;2023-07-09T00:18:50;27.10;99.90
3542;DHT22;1785;47.388;8.538;2023-07-09T00:21:17;27.10;99.90
3542;DHT22;1785;47.388;8.538;2023-07-09T00:23:43;27.10;99.90
3542;DHT22;1785;47.388;8.538;2023-07-09T00:26:10;27.20;99.90
3542;DHT22;1785;47.388;8.538;2023-07-09T00:28:39;27.20;99.90
3542;DHT22;1785;47.388;8.538;2023-07-09T00:31:05;27.10;99.90
3542;DHT22;1785;47.388;8.538;2023-07-09T00:33:31;26.90;99.90
3542;DHT22;1785;47.388;8.538;2023-07-09T00:35:58;26.70;99.90
3542;DHT22;1785;47.388;8.538;2023-07-09T00:38:24;26.70;99.90
3542;DHT22;1785;47.388;8.538;2023-07-09T00:41:00;26.80;99.90
3542;DHT22;1785;47.388;8.538;2023-07-09T00:43:30;27.00;99.90
3542;DHT22;1785;47.388;8.538;2023-07-09T00:47:07;27.00;99.90
3542;DHT22;1785;47.388;8.538;2023-07-09T00:49:04;27.00;99.90
3542;DHT22;1785;47.388;8.538;2023-07-09T00:51:33;27.10;99.90
3542;DHT22;1785;47.388;8.538;2023-07-09T00:54:09;27.00;99.90
3542;DHT22;1785;47.388;8.538;2023-07-09T00:56:42;27.00;99.90
3542;DHT22;1785;47.388;8.538;2023-07-09T00:59:13;27.00;99.90
3542;DHT22;1785;47.388;8.538;2023-07-09T01:01:41;26.90;99.90
3542;DHT22;1785;47.388;8.538;2023-07-09T01:04:10;26.70;99.90
3542;DHT22;1785;47.388;8.538;2023-07-09T01:06:40;26.70;99.90
3542;DHT22;1785;47.388;8.538;2023-07-09T01:09:07;26.70;99.90
3542;DHT22;1785;47.388;8.538;2023-07-09T01:11:34;26.60;99.90
3542;DHT22;1785;47.388;8.538;2023-07-09T01:14:04;26.60;99.90
3542;DHT22;1785;47.388;8.538;2023-07-09T01:16:36;26.20;99.90
3542;DHT22;1785;47.388;8.538;2023-07-09T01:19:03;26.10;99.90
3542;DHT22;1785;47.388;8.538;2023-07-09T01:21:30;25.80;99.90
3542;DHT22;1785;47.388;8.538;2023-07-09T01:23:58;25.60;99.90
3542;DHT22;1785;47.388;8.538;2023-07-09T01:26:27;25.20;99.90
3542;DHT22;1785;47.388;8.538;2023-07-09T01:28:54;25.10;99.90
3542;DHT22;1785;47.388;8.538;2023-07-09T01:31:20;25.00;99.90
3542;DHT22;1785;47.388;8.538;2023-07-09T01:33:47;25.10;99.90
3542;DHT22;1785;47.388;8.538;2023-07-09T01:36:16;25.10;99.90
3542;DHT22;1785;47.388;8.538;2023-07-09T01:38:44;25.20;99.90
3542;DHT22;1785;47.388;8.538;2023-07-09T01:41:10;25.30;99.90
3542;DHT22;1785;47.388;8.538;2023-07-09T01:43:39;25.30;99.90
3542;DHT22;1785;47.388;8.538;2023-07-09T01:46:06;25.50;99.90
3542;DHT22;1785;47.388;8.538;2023-07-09T01:48:34;25.50;99.90
3542;DHT22;1785;47.388;8.538;2023-07-09T01:51:07;25.30;99.90
3542;DHT22;1785;47.388;8.538;2023-07-09T01:53:33;25.30;99.90
3542;DHT22;1785;47.388;8.538;2023-07-09T01:56:02;25.20;99.90
3542;DHT22;1785;47.388;8.538;2023-07-09T01:58:28;25.10;99.90
3542;DHT22;1785;47.388;8.538;2023-07-09T02:00:57;25.10;99.90
3542;DHT22;1785;47.388;8.538;2023-07-09T02:03:23;25.40;99.90
3542;DHT22;1785;47.388;8.538;2023-07-09T02:05:52;25.30;99.90
3542;DHT22;1785;47.388;8.538;2023-07-09T02:08:18;25.40;99.90
3542;DHT22;1785;47.388;8.538;2023-07-09T02:10:44;25.40;99.90
3542;DHT22;1785;47.388;8.538;2023-07-09T02:13:11;25.50;99.90
3542;DHT22;1785;47.388;8.538;2023-07-09T02:15:45;25.50;99.90
3542;DHT22;1785;47.388;8.538;2023-07-09T02:18:11;25.50;99.90
3542;DHT22;1785;47.388;8.538;2023-07-09T02:20:37;25.60;99.90
3542;DHT22;1785;47.388;8.538;2023-07-09T02:23:03;25.30;99.90
3542;DHT22;1785;47.388;8.538;2023-07-09T02:25:29;24.80;99.90
3542;DHT22;1785;47.388;8.538;2023-07-09T02:27:55;24.50;99.90
3542;DHT22;1785;47.388;8.538;2023-07-09T02:30:22;24.40;99.90
3542;DHT22;1785;47.388;8.538;2023-07-09T02:32:48;24.70;99.90
3542;DHT22;1785;47.388;8.538;2023-07-09T02:35:14;24.80;99.90
3542;DHT22;1785;47.388;8.538;2023-07-09T02:37:40;25.00;99.90
3542;DHT22;1785;47.388;8.538;2023-07-09T02:40:08;25.00;99.90
3542;DHT22;1785;47.388;8.538;2023-07-09T02:42:35;25.00;99.90
3542;DHT22;1785;47.388;8.538;2023-07-09T02:45:02;24.90;99.90
3542;DHT22;1785;47.388;8.538;2023-07-09T02:47:29;24.70;99.90
3542;DHT22;1785;47.388;8.538;2023-07-09T02:49:55;24.50;99.90
3542;DHT22;1785;47.388;8.538;2023-07-09T02:52:21;24.40;99.90
3542;DHT22;1785;47.388;8.538;2023-07-09T02:54:47;24.40;99.90
3542;DHT22;1785;47.388;8.538;2023-07-09T02:57:13;24.30;99.90
3542;DHT22;1785;47.388;8.538;2023-07-09T02:59:40;24.40;99.90
3542;DHT22;1785;47.388;8.538;2023-07-09T03:02:06;24.50;99.90
3542;DHT22;1785;47.388;8.538;2023-07-09T03:04:33;24.40;99.90
3542;DHT22;1785;47.388;8.538;2023-07-09T03:06:59;24.40;99.90
3542;DHT22;1785;47.388;8.538;2023-07-09T03:09:25;24.80;99.90
3542;DHT22;1785;47.388;8.538;2023-07-09T03:11:52;24.80;99.90
3542;DHT22;1785;47.388;8.538;2023-07-09T03:14:18;24.60;99.90
3542;DHT22;1785;47.388;8.538;2023-07-09T03:16:44;24.20;99.90
3542;DHT22;1785;47.388;8.538;2023-07-09T03:19:11;24.00;99.90
3542;DHT22;1785;47.388;8.538;2023-07-09T03:21:37;24.10;99.90
3542;DHT22;1785;47.388;8.538;2023-07-09T03:24:05;24.10;99.90
3542;DHT22;1785;47.388;8.538;2023-07-09T03:26:31;24.20;99.90
3542;DHT22;1785;47.388;8.538;2023-07-09T03:28:57;24.10;99.90
3542;DHT22;1785;47.388;8.538;2023-07-09T03:31:24;24.10;99.90
3542;DHT22;1785;47.388;8.538;2023-07-09T03:33:50;24.00;99.90
3542;DHT22;1785;47.388;8.538;2023-07-09T03:36:17;24.20;99.90
3542;DHT22;1785;47.388;8.538;2023-07-09T03:38:45;24.20;99.90
3542;DHT22;1785;47.388;8.538;2023-07-09T03:41:12;24.20;99.90
3542;DHT22;1785;47.388;8.538;2023-07-09T03:43:38;24.50;99.90
3542;DHT22;1785;47.388;8.538;2023-07-09T03:46:04;24.30;99.90
3542;DHT22;1785;47.388;8.538;2023-07-09T03:48:30;24.20;99.90
3542;DHT22;1785;47.388;8.538;2023-07-09T03:50:56;24.40;99.90
3542;DHT22;1785;47.388;8.538;2023-07-09T03:53:22;24.60;99.90
3542;DHT22;1785;47.388;8.538;2023-07-09T03:55:52;24.70;99.90
3542;DHT22;1785;47.388;8.538;2023-07-09T03:58:19;24.60;99.90
3542;DHT22;1785;47.388;8.538;2023-07-09T04:00:45;24.50;99.90
3542;DHT22;1785;47.388;8.538;2023-07-09T04:03:11;24.60;99.90
3542;DHT22;1785;47.388;8.538;2023-07-09T04:05:37;24.60;99.90
3542;DHT22;1785;47.388;8.538;2023-07-09T04:08:04;24.60;99.90
3542;DHT22;1785;47.388;8.538;2023-07-09T04:10:31;24.20;99.90
3542;DHT22;1785;47.388;8.538;2023-07-09T04:12:58;23.80;99.90
3542;DHT22;1785;47.388;8.538;2023-07-09T04:15:24;23.60;99.90
3542;DHT22;1785;47.388;8.538;2023-07-09T04:17:50;23.50;99.90
3542;DHT22;1785;47.388;8.538;2023-07-09T04:20:17;23.40;99.90
3542;DHT22;1785;47.388;8.538;2023-07-09T04:22:44;23.20;99.90
3542;DHT22;1785;47.388;8.538;2023-07-09T04:25:11;23.20;99.90
3542;DHT22;1785;47.388;8.538;2023-07-09T04:27:37;23.00;99.90
3542;DHT22;1785;47.388;8.538;2023-07-09T04:30:05;23.20;99.90
3542;DHT22;1785;47.388;8.538;2023-07-09T04:32:34;23.10;99.90
3542;DHT22;1785;47.388;8.538;2023-07-09T04:35:02;23.00;99.90
3542;DHT22;1785;47.388;8.538;2023-07-09T04:37:28;22.90;99.90
3542;DHT22;1785;47.388;8.538;2023-07-09T04:39:54;22.90;99.90
3542;DHT22;1785;47.388;8.538;2023-07-09T04:42:20;23.20;99.90
3542;DHT22;1785;47.388;8.538;2023-07-09T04:44:46;23.40;99.90
3542;DHT22;1785;47.388;8.538;2023-07-09T04:47:13;23.40;99.90
3542;DHT22;1785;47.388;8.538;2023-07-09T04:49:40;23.30;99.90
3542;DHT22;1785;47.388;8.538;2023-07-09T04:52:07;23.20;99.90
3542;DHT22;1785;47.388;8.538;2023-07-09T04:54:37;23.20;99.90
3542;DHT22;1785;47.388;8.538;2023-07-09T04:57:04;23.10;99.90
3542;DHT22;1785;47.388;8.538;2023-07-09T04:59:31;23.10;99.90
3542;DHT22;1785;47.388;8.538;2023-07-09T05:01:57;23.10;99.90
3542;DHT22;1785;47.388;8.538;2023-07-09T05:04:24;23.20;99.90
3542;DHT22;1785;47.388;8.538;2023-07-09T05:06:50;23.30;99.90
3542;DHT22;1785;47.388;8.538;2023-07-09T05:09:16;23.20;99.90
3542;DHT22;1785;47.388;8.538;2023-07-09T05:11:41;23.50;99.90
3542;DHT22;1785;47.388;8.538;2023-07-09T05:14:08;23.80;99.90
3542;DHT22;1785;47.388;8.538;2023-07-09T05:16:34;23.80;99.90
3542;DHT22;1785;47.388;8.538;2023-07-09T05:19:00;23.90;99.90
3542;DHT22;1785;47.388;8.538;2023-07-09T05:21:26;23.90;99.90
3542;DHT22;1785;47.388;8.538;2023-07-09T05:23:53;23.90;99.90
3542;DHT22;1785;47.388;8.538;2023-07-09T05:26:19;24.00;99.90
3542;DHT22;1785;47.388;8.538;2023-07-09T05:28:45;24.20;99.90
3542;DHT22;1785;47.388;8.538;2023-07-09T05:31:11;24.30;99.90
3542;DHT22;1785;47.388;8.538;2023-07-09T05:33:37;24.50;99.90
3542;DHT22;1785;47.388;8.538;2023-07-09T05:36:04;24.50;99.90
3542;DHT22;1785;47.388;8.538;2023-07-09T05:38:31;24.10;99.90
3542;DHT22;1785;47.388;8.538;2023-07-09T05:41:00;23.90;99.90
3542;DHT22;1785;47.388;8.538;2023-07-09T05:43:28;23.90;99.90
3542;DHT22;1785;47.388;8.538;2023-07-09T05:45:54;23.90;99.90
3542;DHT22;1785;47.388;8.538;2023-07-09T05:48:20;23.90;99.90
3542;DHT22;1785;47.388;8.538;2023-07-09T05:50:48;23.90;99.90
3542;DHT22;1785;47.388;8.538;2023-07-09T05:53:14;24.10;99.90
3542;DHT22;1785;47.388;8.538;2023-07-09T05:55:40;24.20;99.90
3542;DHT22;1785;47.388;8.538;2023-07-09T05:58:07;24.40;99.90
3542;DHT22;1785;47.388;8.538;2023-07-09T06:00:33;24.40;99.90
3542;DHT22;1785;47.388;8.538;2023-07-09T06:03:03;24.10;99.90
3542;DHT22;1785;47.388;8.538;2023-07-09T06:05:33;24.10;99.90
3542;DHT22;1785;47.388;8.538;2023-07-09T06:07:59;24.40;99.90
3542;DHT22;1785;47.388;8.538;2023-07-09T06:10:25;24.70;99.90
3542;DHT22;1785;47.388;8.538;2023-07-09T06:12:52;24.90;99.90
3542;DHT22;1785;47.388;8.538;2023-07-09T06:15:19;25.10;99.90
3542;DHT22;1785;47.388;8.538;2023-07-09T06:17:45;24.90;99.90
3542;DHT22;1785;47.388;8.538;2023-07-09T06:20:11;24.90;99.90
3542;DHT22;1785;47.388;8.538;2023-07-09T06:22:37;24.80;99.90
3542;DHT22;1785;47.388;8.538;2023-07-09T06:25:04;24.80;99.90
3542;DHT22;1785;47.388;8.538;2023-07-09T06:27:30;24.90;99.90
3542;DHT22;1785;47.388;8.538;2023-07-09T06:29:56;25.10;99.90
3542;DHT22;1785;47.388;8.538;2023-07-09T06:32:22;25.20;99.90
3542;DHT22;1785;47.388;8.538;2023-07-09T06:34:48;25.00;99.90
3542;DHT22;1785;47.388;8.538;2023-07-09T06:37:14;25.20;99.90
3542;DHT22;1785;47.388;8.538;2023-07-09T06:39:41;25.60;99.90
3542;DHT22;1785;47.388;8.538;2023-07-09T06:42:07;25.50;99.90
3542;DHT22;1785;47.388;8.538;2023-07-09T06:44:33;25.40;99.90
3542;DHT22;1785;47.388;8.538;2023-07-09T06:47:00;25.40;99.90
3542;DHT22;1785;47.388;8.538;2023-07-09T06:49:27;25.40;99.90
3542;DHT22;1785;47.388;8.538;2023-07-09T06:51:53;25.40;99.90
3542;DHT22;1785;47.388;8.538;2023-07-09T06:54:19;25.50;99.90
3542;DHT22;1785;47.388;8.538;2023-07-09T06:56:45;25.60;99.90
3542;DHT22;1785;47.388;8.538;2023-07-09T06:59:11;25.70;99.90
3542;DHT22;1785;47.388;8.538;2023-07-09T07:01:37;25.90;99.90
3542;DHT22;1785;47.388;8.538;2023-07-09T07:04:04;26.00;99.90
3542;DHT22;1785;47.388;8.538;2023-07-09T07:06:30;26.10;99.90
3542;DHT22;1785;47.388;8.538;2023-07-09T07:08:56;26.40;99.90
3542;DHT22;1785;47.388;8.538;2023-07-09T07:11:22;26.60;99.90
3542;DHT22;1785;47.388;8.538;2023-07-09T07:13:48;26.60;99.90
3542;DHT22;1785;47.388;8.538;2023-07-09T07:16:17;26.60;99.90
3542;DHT22;1785;47.388;8.538;2023-07-09T07:18:43;26.80;99.90
3542;DHT22;1785;47.388;8.538;2023-07-09T07:21:09;26.80;99.90
3542;DHT22;1785;47.388;8.538;2023-07-09T07:23:35;26.60;99.90
3542;DHT22;1785;47.388;8.538;2023-07-09T07:26:02;26.70;99.90
3542;DHT22;1785;47.388;8.538;2023-07-09T07:28:29;26.80;99.90
3542;DHT22;1785;47.388;8.538;2023-07-09T07:30:59;26.80;99.90
3542;DHT22;1785;47.388;8.538;2023-07-09T07:33:26;26.90;99.90
3542;DHT22;1785;47.388;8.538;2023-07-09T07:35:52;26.60;99.90
3542;DHT22;1785;47.388;8.538;2023-07-09T07:38:18;26.50;99.90
3542;DHT22;1785;47.388;8.538;2023-07-09T07:40:44;26.30;99.90
3542;DHT22;1785;47.388;8.538;2023-07-09T07:43:11;26.60;99.90
3542;DHT22;1785;47.388;8.538;2023-07-09T07:45:40;26.70;99.90
3542;DHT22;1785;47.388;8.538;2023-07-09T07:48:07;26.70;99.90
3542;DHT22;1785;47.388;8.538;2023-07-09T07:50:33;26.80;99.90
3542;DHT22;1785;47.388;8.538;2023-07-09T07:52:59;26.50;99.90
3542;DHT22;1785;47.388;8.538;2023-07-09T07:55:25;26.60;99.90
3542;DHT22;1785;47.388;8.538;2023-07-09T07:57:51;26.80;99.90
3542;DHT22;1785;47.388;8.538;2023-07-09T08:00:18;26.90;99.90
3542;DHT22;1785;47.388;8.538;2023-07-09T08:02:45;27.00;99.90
3542;DHT22;1785;47.388;8.538;2023-07-09T08:05:11;26.80;99.90
3542;DHT22;1785;47.388;8.538;2023-07-09T08:07:37;26.60;99.90
3542;DHT22;1785;47.388;8.538;2023-07-09T08:10:03;26.60;99.90
3542;DHT22;1785;47.388;8.538;2023-07-09T08:12:30;26.90;99.90
3542;DHT22;1785;47.388;8.538;2023-07-09T08:14:56;27.10;99.90
3542;DHT22;1785;47.388;8.538;2023-07-09T08:17:23;27.30;99.90
3542;DHT22;1785;47.388;8.538;2023-07-09T08:19:51;27.40;99.90
3542;DHT22;1785;47.388;8.538;2023-07-09T08:22:18;27.40;99.90
3542;DHT22;1785;47.388;8.538;2023-07-09T08:24:46;27.30;99.90
3542;DHT22;1785;47.388;8.538;2023-07-09T08:27:12;27.30;99.90
3542;DHT22;1785;47.388;8.538;2023-07-09T08:29:39;27.60;99.90
3542;DHT22;1785;47.388;8.538;2023-07-09T08:32:06;27.60;99.90
3542;DHT22;1785;47.388;8.538;2023-07-09T08:34:32;27.80;99.90
3542;DHT22;1785;47.388;8.538;2023-07-09T08:36:58;28.00;99.90
3542;DHT22;1785;47.388;8.538;2023-07-09T08:39:25;28.20;99.90
3542;DHT22;1785;47.388;8.538;2023-07-09T08:41:55;28.30;99.90
3542;DHT22;1785;47.388;8.538;2023-07-09T08:44:44;28.20;99.90
3542;DHT22;1785;47.388;8.538;2023-07-09T08:47:18;28.40;99.90
3542;DHT22;1785;47.388;8.538;2023-07-09T08:49:53;28.60;99.90
3542;DHT22;1785;47.388;8.538;2023-07-09T08:52:26;28.80;99.90
3542;DHT22;1785;47.388;8.538;2023-07-09T08:54:56;28.90;99.90
3542;DHT22;1785;47.388;8.538;2023-07-09T08:57:26;29.00;99.90
3542;DHT22;1785;47.388;8.538;2023-07-09T08:59:58;29.20;99.90
3542;DHT22;1785;47.388;8.538;2023-07-09T09:02:31;29.00;99.90
3542;DHT22;1785;47.388;8.538;2023-07-09T09:04:58;28.80;99.90
3542;DHT22;1785;47.388;8.538;2023-07-09T09:07:33;28.90;99.90
3542;DHT22;1785;47.388;8.538;2023-07-09T09:10:02;29.20;99.90
3542;DHT22;1785;47.388;8.538;2023-07-09T09:12:33;29.30;99.90
3542;DHT22;1785;47.388;8.538;2023-07-09T09:15:04;29.40;99.90
3542;DHT22;1785;47.388;8.538;2023-07-09T09:17:38;29.60;99.90
3542;DHT22;1785;47.388;8.538;2023-07-09T09:20:08;29.70;99.90
3542;DHT22;1785;47.388;8.538;2023-07-09T09:22:42;29.70;99.90
3542;DHT22;1785;47.388;8.538;2023-07-09T09:25:20;29.80;99.90
3542;DHT22;1785;47.388;8.538;2023-07-09T09:27:47;29.80;99.60
3542;DHT22;1785;47.388;8.538;2023-07-09T09:30:15;29.80;99.90
3542;DHT22;1785;47.388;8.538;2023-07-09T09:32:43;29.80;99.80
3542;DHT22;1785;47.388;8.538;2023-07-09T09:35:14;29.80;99.90
3542;DHT22;1785;47.388;8.538;2023-07-09T09:37:49;30.20;99.90
3542;DHT22;1785;47.388;8.538;2023-07-09T09:40:17;30.10;98.90
3542;DHT22;1785;47.388;8.538;2023-07-09T09:42:44;30.00;98.90
3542;DHT22;1785;47.388;8.538;2023-07-09T09:45:15;30.10;99.10
3542;DHT22;1785;47.388;8.538;2023-07-09T09:47:41;30.40;98.60
3542;DHT22;1785;47.388;8.538;2023-07-09T09:50:12;30.50;98.60
3542;DHT22;1785;47.388;8.538;2023-07-09T09:52:38;30.40;98.50
3542;DHT22;1785;47.388;8.538;2023-07-09T09:55:11;30.30;98.40
3542;DHT22;1785;47.388;8.538;2023-07-09T09:57:38;30.30;98.20
3542;DHT22;1785;47.388;8.538;2023-07-09T10:00:06;30.40;98.10
3542;DHT22;1785;47.388;8.538;2023-07-09T10:02:41;30.50;97.70
3542;DHT22;1785;47.388;8.538;2023-07-09T10:05:11;30.50;97.70
3542;DHT22;1785;47.388;8.538;2023-07-09T10:07:43;30.60;97.40
3542;DHT22;1785;47.388;8.538;2023-07-09T10:10:13;30.70;97.30
3542;DHT22;1785;47.388;8.538;2023-07-09T10:12:45;30.70;96.80
3542;DHT22;1785;47.388;8.538;2023-07-09T10:15:24;30.90;96.50
3542;DHT22;1785;47.388;8.538;2023-07-09T10:17:58;30.80;96.30
3542;DHT22;1785;47.388;8.538;2023-07-09T10:20:32;30.70;96.40
3542;DHT22;1785;47.388;8.538;2023-07-09T10:23:03;30.70;96.70
3542;DHT22;1785;47.388;8.538;2023-07-09T10:25:42;31.00;96.60
3542;DHT22;1785;47.388;8.538;2023-07-09T10:28:41;31.10;95.50
3542;DHT22;1785;47.388;8.538;2023-07-09T10:31:14;31.00;95.30
3542;DHT22;1785;47.388;8.538;2023-07-09T10:33:53;31.00;95.50
3542;DHT22;1785;47.388;8.538;2023-07-09T10:36:30;31.10;95.00
3542;DHT22;1785;47.388;8.538;2023-07-09T10:39:02;31.30;94.80
3542;DHT22;1785;47.388;8.538;2023-07-09T10:41:30;31.50;93.60
3542;DHT22;1785;47.388;8.538;2023-07-09T10:44:00;31.60;94.20
3542;DHT22;1785;47.388;8.538;2023-07-09T10:46:31;31.70;94.20
3542;DHT22;1785;47.388;8.538;2023-07-09T10:49:00;31.60;93.70
3542;DHT22;1785;47.388;8.538;2023-07-09T10:51:31;31.80;93.90
3542;DHT22;1785;47.388;8.538;2023-07-09T10:54:02;31.90;92.60
3542;DHT22;1785;47.388;8.538;2023-07-09T10:56:33;32.10;92.70
3542;DHT22;1785;47.388;8.538;2023-07-09T10:59:04;32.30;91.70
3542;DHT22;1785;47.388;8.538;2023-07-09T11:01:34;32.30;91.60
3542;DHT22;1785;47.388;8.538;2023-07-09T11:04:05;32.40;90.10
3542;DHT22;1785;47.388;8.538;2023-07-09T11:06:35;32.20;89.70
3542;DHT22;1785;47.388;8.538;2023-07-09T11:09:07;32.20;90.10
3542;DHT22;1785;47.388;8.538;2023-07-09T11:11:40;32.30;90.70
3542;DHT22;1785;47.388;8.538;2023-07-09T11:14:24;32.70;90.90
3542;DHT22;1785;47.388;8.538;2023-07-09T11:16:53;32.90;91.70
3542;DHT22;1785;47.388;8.538;2023-07-09T11:19:21;33.00;90.50
3542;DHT22;1785;47.388;8.538;2023-07-09T11:21:59;33.20;90.70
3542;DHT22;1785;47.388;8.538;2023-07-09T11:24:31;33.10;90.00
3542;DHT22;1785;47.388;8.538;2023-07-09T11:26:57;33.20;89.90
3542;DHT22;1785;47.388;8.538;2023-07-09T11:29:26;33.40;88.80
3542;DHT22;1785;47.388;8.538;2023-07-09T11:31:52;33.30;87.90
3542;DHT22;1785;47.388;8.538;2023-07-09T11:34:19;33.30;87.20
3542;DHT22;1785;47.388;8.538;2023-07-09T11:36:49;33.40;86.20
3542;DHT22;1785;47.388;8.538;2023-07-09T11:39:27;33.40;85.90
3542;DHT22;1785;47.388;8.538;2023-07-09T11:41:54;33.40;85.60
3542;DHT22;1785;47.388;8.538;2023-07-09T11:44:24;33.40;84.90
3542;DHT22;1785;47.388;8.538;2023-07-09T11:47:13;33.50;84.20
3542;DHT22;1785;47.388;8.538;2023-07-09T11:49:49;33.30;83.60
3542;DHT22;1785;47.388;8.538;2023-07-09T11:52:22;33.20;84.70
3542;DHT22;1785;47.388;8.538;2023-07-09T11:54:49;33.20;83.80
3542;DHT22;1785;47.388;8.538;2023-07-09T11:57:18;33.40;84.20
3542;DHT22;1785;47.388;8.538;2023-07-09T11:59:44;33.30;83.70
3542;DHT22;1785;47.388;8.538;2023-07-09T12:02:17;33.40;83.80
3542;DHT22;1785;47.388;8.538;2023-07-09T12:04:44;33.70;83.20
3542;DHT22;1785;47.388;8.538;2023-07-09T12:07:13;33.70;83.50
3542;DHT22;1785;47.388;8.538;2023-07-09T12:09:47;33.80;83.40
3542;DHT22;1785;47.388;8.538;2023-07-09T12:12:20;33.70;83.30
3542;DHT22;1785;47.388;8.538;2023-07-09T12:14:46;33.50;80.90
3542;DHT22;1785;47.388;8.538;2023-07-09T12:17:12;33.50;82.70
3542;DHT22;1785;47.388;8.538;2023-07-09T12:19:39;33.80;80.90
3542;DHT22;1785;47.388;8.538;2023-07-09T12:22:09;33.90;82.70
3542;DHT22;1785;47.388;8.538;2023-07-09T12:24:38;34.20;82.10
3542;DHT22;1785;47.388;8.538;2023-07-09T12:27:18;34.10;80.20
3542;DHT22;1785;47.388;8.538;2023-07-09T12:29:45;34.40;80.70
3542;DHT22;1785;47.388;8.538;2023-07-09T12:32:14;34.30;79.80
3542;DHT22;1785;47.388;8.538;2023-07-09T12:34:40;34.40;83.30
3542;DHT22;1785;47.388;8.538;2023-07-09T12:37:12;34.50;79.50
3542;DHT22;1785;47.388;8.538;2023-07-09T12:39:39;34.40;75.40
3542;DHT22;1785;47.388;8.538;2023-07-09T12:42:15;34.40;75.50
3542;DHT22;1785;47.388;8.538;2023-07-09T12:44:42;34.00;74.90
3542;DHT22;1785;47.388;8.538;2023-07-09T12:47:12;33.90;76.00
3542;DHT22;1785;47.388;8.538;2023-07-09T12:49:41;33.90;75.20
3542;DHT22;1785;47.388;8.538;2023-07-09T12:52:13;34.20;75.30
3542;DHT22;1785;47.388;8.538;2023-07-09T12:54:41;34.30;73.50
3542;DHT22;1785;47.388;8.538;2023-07-09T12:57:14;34.50;73.70
3542;DHT22;1785;47.388;8.538;2023-07-09T12:59:45;34.70;71.90
3542;DHT22;1785;47.388;8.538;2023-07-09T13:02:16;35.00;72.10
3542;DHT22;1785;47.388;8.538;2023-07-09T13:04:42;35.10;70.50
3542;DHT22;1785;47.388;8.538;2023-07-09T13:07:26;35.20;70.80
3542;DHT22;1785;47.388;8.538;2023-07-09T13:09:55;35.20;69.00
3542;DHT22;1785;47.388;8.538;2023-07-09T13:12:28;35.40;67.80
3542;DHT22;1785;47.388;8.538;2023-07-09T13:14:55;35.40;69.60
3542;DHT22;1785;47.388;8.538;2023-07-09T13:17:22;35.60;69.20
3542;DHT22;1785;47.388;8.538;2023-07-09T13:19:48;35.70;70.30
3542;DHT22;1785;47.388;8.538;2023-07-09T13:22:16;35.70;71.90
3542;DHT22;1785;47.388;8.538;2023-07-09T13:24:44;35.80;71.90
3542;DHT22;1785;47.388;8.538;2023-07-09T13:27:11;35.80;71.80
3542;DHT22;1785;47.388;8.538;2023-07-09T13:29:39;35.80;68.60
3542;DHT22;1785;47.388;8.538;2023-07-09T13:32:09;35.80;67.80
3542;DHT22;1785;47.388;8.538;2023-07-09T13:34:35;35.80;69.50
3542;DHT22;1785;47.388;8.538;2023-07-09T13:37:01;36.00;69.00
3542;DHT22;1785;47.388;8.538;2023-07-09T13:39:27;35.60;62.90
3542;DHT22;1785;47.388;8.538;2023-07-09T13:41:53;35.40;63.60
3542;DHT22;1785;47.388;8.538;2023-07-09T13:44:22;35.10;64.60
3542;DHT22;1785;47.388;8.538;2023-07-09T13:46:51;35.10;64.90
3542;DHT22;1785;47.388;8.538;2023-07-09T13:49:19;35.30;66.60
3542;DHT22;1785;47.388;8.538;2023-07-09T13:51:47;35.70;64.20
3542;DHT22;1785;47.388;8.538;2023-07-09T13:54:17;35.80;62.90
3542;DHT22;1785;47.388;8.538;2023-07-09T13:56:44;35.80;64.60
3542;DHT22;1785;47.388;8.538;2023-07-09T13:59:14;36.20;63.70
3542;DHT22;1785;47.388;8.538;2023-07-09T14:01:41;36.40;65.30
3542;DHT22;1785;47.388;8.538;2023-07-09T14:04:09;36.50;61.10
3542;DHT22;1785;47.388;8.538;2023-07-09T14:06:37;36.40;57.90
3542;DHT22;1785;47.388;8.538;2023-07-09T14:09:03;36.40;60.30
3542;DHT22;1785;47.388;8.538;2023-07-09T14:11:29;36.50;62.50
3542;DHT22;1785;47.388;8.538;2023-07-09T14:13:56;36.80;62.30
3542;DHT22;1785;47.388;8.538;2023-07-09T14:16:22;36.90;59.70
3542;DHT22;1785;47.388;8.538;2023-07-09T14:18:48;37.10;60.30
3542;DHT22;1785;47.388;8.538;2023-07-09T14:21:16;37.00;60.50
3542;DHT22;1785;47.388;8.538;2023-07-09T14:23:44;37.20;59.90
3542;DHT22;1785;47.388;8.538;2023-07-09T14:26:10;37.30;61.00
3542;DHT22;1785;47.388;8.538;2023-07-09T14:28:37;37.40;63.20
3542;DHT22;1785;47.388;8.538;2023-07-09T14:31:07;37.40;63.80
3542;DHT22;1785;47.388;8.538;2023-07-09T14:33:39;37.40;61.60
3542;DHT22;1785;47.388;8.538;2023-07-09T14:36:06;37.50;60.50
3542;DHT22;1785;47.388;8.538;2023-07-09T14:38:32;37.70;60.70
3542;DHT22;1785;47.388;8.538;2023-07-09T14:41:04;37.70;60.20
3542;DHT22;1785;47.388;8.538;2023-07-09T14:43:34;37.60;59.80
3542;DHT22;1785;47.388;8.538;2023-07-09T14:46:00;37.60;57.40
3542;DHT22;1785;47.388;8.538;2023-07-09T14:48:29;37.80;58.80
3542;DHT22;1785;47.388;8.538;2023-07-09T14:50:55;37.80;57.30
3542;DHT22;1785;47.388;8.538;2023-07-09T14:53:25;38.00;58.10
3542;DHT22;1785;47.388;8.538;2023-07-09T14:55:52;38.00;56.70
3542;DHT22;1785;47.388;8.538;2023-07-09T14:58:20;37.40;55.70
3542;DHT22;1785;47.388;8.538;2023-07-09T15:00:47;37.10;55.50
3542;DHT22;1785;47.388;8.538;2023-07-09T15:03:18;36.80;56.50
3542;DHT22;1785;47.388;8.538;2023-07-09T15:05:44;37.30;58.30
3542;DHT22;1785;47.388;8.538;2023-07-09T15:08:12;37.60;57.60
3542;DHT22;1785;47.388;8.538;2023-07-09T15:10:39;37.90;58.70
3542;DHT22;1785;47.388;8.538;2023-07-09T15:13:07;38.20;58.30
3542;DHT22;1785;47.388;8.538;2023-07-09T15:15:37;38.20;58.80
3542;DHT22;1785;47.388;8.538;2023-07-09T15:18:12;38.30;57.30
3542;DHT22;1785;47.388;8.538;2023-07-09T15:20:38;38.60;57.40
3542;DHT22;1785;47.388;8.538;2023-07-09T15:23:05;38.80;56.10
3542;DHT22;1785;47.388;8.538;2023-07-09T15:25:31;38.60;54.30
3542;DHT22;1785;47.388;8.538;2023-07-09T15:27:58;38.50;54.80
3542;DHT22;1785;47.388;8.538;2023-07-09T15:30:26;38.20;53.20
3542;DHT22;1785;47.388;8.538;2023-07-09T15:32:55;37.80;54.90
3542;DHT22;1785;47.388;8.538;2023-07-09T15:35:21;38.10;56.20
3542;DHT22;1785;47.388;8.538;2023-07-09T15:37:48;38.50;55.40
3542;DHT22;1785;47.388;8.538;2023-07-09T15:40:19;38.90;55.30
3542;DHT22;1785;47.388;8.538;2023-07-09T15:42:46;39.20;55.20
3542;DHT22;1785;47.388;8.538;2023-07-09T15:45:14;39.60;55.90
3542;DHT22;1785;47.388;8.538;2023-07-09T15:47:40;39.90;54.90
3542;DHT22;1785;47.388;8.538;2023-07-09T15:50:14;40.20;54.20
3542;DHT22;1785;47.388;8.538;2023-07-09T15:52:41;39.90;53.10
3542;DHT22;1785;47.388;8.538;2023-07-09T15:55:12;40.00;54.20
3542;DHT22;1785;47.388;8.538;2023-07-09T15:57:39;39.90;54.70
3542;DHT22;1785;47.388;8.538;2023-07-09T16:00:13;39.70;53.10
3542;DHT22;1785;47.388;8.538;2023-07-09T16:02:40;39.30;53.40
3542;DHT22;1785;47.388;8.538;2023-07-09T16:05:17;39.10;54.50
3542;DHT22;1785;47.388;8.538;2023-07-09T16:07:43;39.00;55.20
3542;DHT22;1785;47.388;8.538;2023-07-09T16:10:09;39.00;53.70